createdAt,value
2022-10-29T00:00:39.860Z,17.3
2022-10-29T00:01:39.966Z,17.3
2022-10-29T00:02:40.098Z,17.3
2022-10-29T00:03:39.893Z,17.3
2022-10-29T00:04:39.900Z,17.3
2022-10-29T00:05:39.868Z,17.3
2022-10-29T00:06:39.980Z,17.3
2022-10-29T00:07:39.856Z,17.3
2022-10-29T00:08:39.862Z,17.3
2022-10-29T00:09:39.853Z,17.3
2022-10-29T00:10:39.858Z,17.4
2022-10-29T00:11:39.907Z,17.4
2022-10-29T00:12:39.918Z,17.4
2022-10-29T00:13:39.851Z,17.5
2022-10-29T00:14:39.851Z,17.5
2022-10-29T00:15:39.929Z,17.4
2022-10-29T00:16:39.943Z,17.4
2022-10-29T00:17:39.960Z,17.4
2022-10-29T00:18:39.942Z,17.3
2022-10-29T00:19:39.951Z,17.3
2022-10-29T00:20:39.896Z,17.3
2022-10-29T00:21:39.953Z,17.3
2022-10-29T00:22:39.974Z,17.3
2022-10-29T00:23:39.868Z,17.3
2022-10-29T00:24:39.877Z,17.3
2022-10-29T00:25:39.879Z,17.3
2022-10-29T00:26:39.907Z,17.3
2022-10-29T00:27:40.023Z,17.3
2022-10-29T00:28:39.901Z,17.3
2022-10-29T00:29:39.889Z,17.3
2022-10-29T00:30:39.910Z,17.2
2022-10-29T00:31:39.956Z,17.2
2022-10-29T00:32:39.924Z,17.2
2022-10-29T00:33:39.855Z,17.1
2022-10-29T00:34:40.048Z,17.1
2022-10-29T00:35:39.967Z,17.1
2022-10-29T00:36:39.860Z,17.2
2022-10-29T00:37:39.955Z,17.1
2022-10-29T00:38:39.964Z,17.1
2022-10-29T00:39:39.871Z,17.1
2022-10-29T00:40:39.887Z,17.1
2022-10-29T00:41:39.881Z,17
2022-10-29T00:42:40.021Z,17
2022-10-29T00:43:39.993Z,17
2022-10-29T00:44:39.904Z,17
2022-10-29T00:45:39.908Z,17
2022-10-29T00:46:40.188Z,17
2022-10-29T00:47:39.855Z,17
2022-10-29T00:48:40.247Z,17
2022-10-29T00:49:40.172Z,17
2022-10-29T00:50:39.903Z,17
2022-10-29T00:51:39.944Z,17
2022-10-29T00:52:39.953Z,17
2022-10-29T00:53:39.955Z,17
2022-10-29T00:54:39.862Z,17
2022-10-29T00:55:39.972Z,17
2022-10-29T00:56:39.877Z,17
2022-10-29T00:57:39.885Z,16.9
2022-10-29T00:58:39.995Z,17
2022-10-29T00:59:39.983Z,17
2022-10-29T01:00:39.883Z,17
2022-10-29T01:01:40.000Z,16.9
2022-10-29T01:02:40.110Z,16.9
2022-10-29T01:03:39.922Z,16.9
2022-10-29T01:04:39.935Z,16.8
2022-10-29T01:05:39.939Z,16.8
2022-10-29T01:06:39.943Z,16.8
2022-10-29T01:07:39.944Z,16.8
2022-10-29T01:08:39.976Z,16.7
2022-10-29T01:09:39.869Z,16.7
2022-10-29T01:10:39.867Z,16.7
2022-10-29T01:11:39.988Z,16.7
2022-10-29T01:12:39.920Z,16.7
2022-10-29T01:13:39.904Z,16.7
2022-10-29T01:14:39.992Z,16.8
2022-10-29T01:15:39.900Z,16.8
2022-10-29T01:16:39.933Z,16.8
2022-10-29T01:17:39.913Z,16.8
2022-10-29T01:18:39.962Z,16.7
2022-10-29T01:19:39.931Z,16.7
2022-10-29T01:20:39.940Z,16.7
2022-10-29T01:21:39.946Z,16.7
2022-10-29T01:22:39.865Z,16.7
2022-10-29T01:23:39.873Z,16.6
2022-10-29T01:24:39.863Z,16.6
2022-10-29T01:25:39.960Z,16.5
2022-10-29T01:26:39.869Z,16.6
2022-10-29T01:27:40.006Z,16.6
2022-10-29T01:34:40.021Z,16.5
2022-10-29T01:35:39.920Z,16.5
2022-10-29T01:36:39.915Z,16.6
2022-10-29T01:37:39.912Z,16.5
2022-10-29T01:38:39.876Z,16.5
2022-10-29T01:39:39.949Z,16.4
2022-10-29T01:40:39.955Z,16.4
2022-10-29T01:41:39.955Z,16.4
2022-10-29T01:42:39.989Z,16.3
2022-10-29T01:43:39.962Z,16.3
2022-10-29T01:44:39.979Z,16.3
2022-10-29T01:45:39.895Z,16.2
2022-10-29T01:46:39.883Z,16.1
2022-10-29T01:47:39.860Z,16.1
2022-10-29T01:48:40.016Z,16.1
2022-10-29T01:49:39.936Z,16.1
2022-10-29T01:50:39.907Z,16.1
2022-10-29T01:51:40.026Z,16.2
2022-10-29T01:52:39.919Z,16.2
2022-10-29T01:53:39.935Z,16.1
2022-10-29T01:54:39.936Z,16.1
2022-10-29T01:55:39.950Z,16.1
2022-10-29T01:56:39.948Z,16.1
2022-10-29T01:57:39.978Z,16.1
2022-10-29T01:58:39.963Z,16.1
2022-10-29T01:59:55.036Z,16
2022-10-29T02:00:40.019Z,16
2022-10-29T02:01:39.936Z,16
2022-10-29T02:02:42.235Z,16
2022-10-29T02:03:39.884Z,15.9
2022-10-29T02:04:39.870Z,15.9
2022-10-29T02:05:39.960Z,15.9
2022-10-29T02:06:39.879Z,15.9
2022-10-29T02:07:39.911Z,15.9
2022-10-29T02:08:39.938Z,15.8
2022-10-29T02:09:39.926Z,15.8
2022-10-29T02:10:39.931Z,15.8
2022-10-29T02:11:39.883Z,15.8
2022-10-29T02:12:39.904Z,15.8
2022-10-29T02:13:39.895Z,15.8
2022-10-29T02:14:39.984Z,15.8
2022-10-29T02:15:39.980Z,15.8
2022-10-29T02:16:39.966Z,15.8
2022-10-29T02:17:39.866Z,15.8
2022-10-29T02:18:39.884Z,15.8
2022-10-29T02:19:39.887Z,15.8
2022-10-29T02:20:39.885Z,15.8
2022-10-29T02:21:39.906Z,15.8
2022-10-29T02:22:40.009Z,15.8
2022-10-29T02:23:40.046Z,15.9
2022-10-29T02:24:39.861Z,15.9
2022-10-29T02:25:40.055Z,15.8
2022-10-29T02:26:39.931Z,15.8
2022-10-29T02:27:39.969Z,15.8
2022-10-29T02:28:39.961Z,15.8
2022-10-29T02:29:39.884Z,15.8
2022-10-29T02:30:39.944Z,15.8
2022-10-29T02:31:39.977Z,15.8
2022-10-29T02:32:39.978Z,15.8
2022-10-29T02:33:40.005Z,15.8
2022-10-29T02:34:39.884Z,15.7
2022-10-29T02:35:39.902Z,15.7
2022-10-29T02:36:39.872Z,15.8
2022-10-29T02:37:39.890Z,15.8
2022-10-29T02:38:40.018Z,15.8
2022-10-29T02:39:39.936Z,15.8
2022-10-29T02:40:39.937Z,15.8
2022-10-29T02:41:39.887Z,15.8
2022-10-29T02:42:39.979Z,15.8
2022-10-29T02:43:39.928Z,15.7
2022-10-29T02:44:39.951Z,15.7
2022-10-29T02:45:39.941Z,15.6
2022-10-29T02:46:39.968Z,15.6
2022-10-29T02:47:39.966Z,15.5
2022-10-29T02:48:40.011Z,15.5
2022-10-29T02:49:39.887Z,15.5
2022-10-29T02:50:39.882Z,15.5
2022-10-29T02:51:39.926Z,15.5
2022-10-29T02:52:40.012Z,15.5
2022-10-29T02:53:39.912Z,15.5
2022-10-29T02:54:39.943Z,15.5
2022-10-29T02:55:39.926Z,15.5
2022-10-29T02:56:39.935Z,15.5
2022-10-29T02:57:39.955Z,15.5
2022-10-29T02:58:39.951Z,15.4
2022-10-29T02:59:39.959Z,15.4
2022-10-29T03:00:39.957Z,15.4
2022-10-29T03:01:40.131Z,15.3
2022-10-29T03:02:40.023Z,15.3
2022-10-29T03:03:39.894Z,15.3
2022-10-29T03:04:39.885Z,15.3
2022-10-29T03:05:41.385Z,15.4
2022-10-29T03:06:39.999Z,15.3
2022-10-29T03:07:39.905Z,15.3
2022-10-29T03:08:39.905Z,15.3
2022-10-29T03:09:40.014Z,15.4
2022-10-29T03:10:40.030Z,15.3
2022-10-29T03:11:39.928Z,15.3
2022-10-29T03:12:39.952Z,15.3
2022-10-29T03:13:39.933Z,15.4
2022-10-29T03:14:39.943Z,15.4
2022-10-29T03:15:39.956Z,15.3
2022-10-29T03:16:39.886Z,15.3
2022-10-29T03:17:39.935Z,15.3
2022-10-29T03:18:39.934Z,15.3
2022-10-29T03:19:39.969Z,15.3
2022-10-29T03:20:39.990Z,15.3
2022-10-29T03:21:39.983Z,15.2
2022-10-29T03:22:40.024Z,15.2
2022-10-29T03:23:40.003Z,15.2
2022-10-29T03:24:39.908Z,15.2
2022-10-29T03:25:40.026Z,15.2
2022-10-29T03:26:40.030Z,15.2
2022-10-29T03:27:39.924Z,15.2
2022-10-29T03:28:39.962Z,15.2
2022-10-29T03:29:39.941Z,15.2
2022-10-29T03:30:39.942Z,15.2
2022-10-29T03:31:39.921Z,15.2
2022-10-29T03:32:39.955Z,15.2
2022-10-29T03:33:39.961Z,15.2
2022-10-29T03:34:39.980Z,15.2
2022-10-29T03:35:40.037Z,15.2
2022-10-29T03:36:39.997Z,15.2
2022-10-29T03:37:39.987Z,15.2
2022-10-29T03:38:39.892Z,15.2
2022-10-29T03:39:40.023Z,15.2
2022-10-29T03:40:39.948Z,15.2
2022-10-29T03:41:39.941Z,15.2
2022-10-29T03:42:39.942Z,15.3
2022-10-29T03:43:39.939Z,15.3
2022-10-29T03:44:39.934Z,15.3
2022-10-29T03:45:39.886Z,15.4
2022-10-29T03:46:39.947Z,15.3
2022-10-29T03:47:39.959Z,15.4
2022-10-29T03:48:39.956Z,15.3
2022-10-29T03:49:39.959Z,15.3
2022-10-29T03:50:39.899Z,15.3
2022-10-29T03:51:39.908Z,15.3
2022-10-29T03:52:39.909Z,15.3
2022-10-29T03:53:39.919Z,15.3
2022-10-29T03:54:39.933Z,15.3
2022-10-29T03:55:39.919Z,15.4
2022-10-29T03:56:39.943Z,15.3
2022-10-29T03:57:39.972Z,15.3
2022-10-29T03:58:39.899Z,15.3
2022-10-29T03:59:39.908Z,15.3
2022-10-29T04:00:39.890Z,15.3
2022-10-29T04:01:40.034Z,15.3
2022-10-29T04:02:40.138Z,15.3
2022-10-29T04:03:39.910Z,15.3
2022-10-29T04:04:39.948Z,15.3
2022-10-29T04:05:39.936Z,15.3
2022-10-29T04:06:39.992Z,15.3
2022-10-29T04:07:39.982Z,15.3
2022-10-29T04:08:39.992Z,15.3
2022-10-29T04:09:39.903Z,15.4
2022-10-29T04:10:39.999Z,15.3
2022-10-29T04:11:39.937Z,15.3
2022-10-29T04:12:40.037Z,15.3
2022-10-29T04:13:39.895Z,15.3
2022-10-29T04:14:44.514Z,15.3
2022-10-29T04:15:39.933Z,15.4
2022-10-29T04:16:39.914Z,15.4
2022-10-29T04:17:39.935Z,15.4
2022-10-29T04:18:39.939Z,15.4
2022-10-29T04:19:40.053Z,15.5
2022-10-29T04:21:31.268Z,15.5
2022-10-29T04:27:07.678Z,15.5
2022-10-29T04:28:43.968Z,15.5
2022-10-29T04:29:40.026Z,15.5
2022-10-29T04:30:39.918Z,15.5
2022-10-29T04:31:39.924Z,15.5
2022-10-29T04:32:39.936Z,15.6
2022-10-29T04:33:39.946Z,15.6
2022-10-29T04:34:39.942Z,15.6
2022-10-29T04:35:39.959Z,15.5
2022-10-29T04:36:39.953Z,15.5
2022-10-29T04:37:39.960Z,15.5
2022-10-29T04:38:39.973Z,15.5
2022-10-29T04:39:40.000Z,15.6
2022-10-29T04:40:39.902Z,15.5
2022-10-29T04:41:39.896Z,15.5
2022-10-29T04:42:40.020Z,15.5
2022-10-29T04:43:40.016Z,15.5
2022-10-29T04:44:39.935Z,15.5
2022-10-29T04:45:40.008Z,15.5
2022-10-29T04:46:39.922Z,15.5
2022-10-29T04:47:40.062Z,15.5
2022-10-29T04:48:40.051Z,15.5
2022-10-29T04:49:40.038Z,15.5
2022-10-29T04:50:40.059Z,15.6
2022-10-29T04:51:39.987Z,15.6
2022-10-29T04:52:40.036Z,15.6
2022-10-29T04:53:40.093Z,15.5
2022-10-29T04:54:40.181Z,15.5
2022-10-29T04:55:39.914Z,15.6
2022-10-29T04:56:39.999Z,15.6
2022-10-29T04:57:40.025Z,15.6
2022-10-29T04:58:40.015Z,15.5
2022-10-29T04:59:40.015Z,15.5
2022-10-29T05:00:40.000Z,15.5
2022-10-29T05:01:39.937Z,15.5
2022-10-29T05:02:40.026Z,15.4
2022-10-29T05:03:39.944Z,15.4
2022-10-29T05:04:40.054Z,15.4
2022-10-29T05:05:39.966Z,15.4
2022-10-29T05:06:40.062Z,15.3
2022-10-29T05:07:39.958Z,15.2
2022-10-29T05:08:39.912Z,15.2
2022-10-29T05:09:39.985Z,15.2
2022-10-29T05:10:40.021Z,15.2
2022-10-29T05:11:40.008Z,15.2
2022-10-29T05:12:40.037Z,15.1
2022-10-29T05:13:40.019Z,15.1
2022-10-29T05:14:40.020Z,15.2
2022-10-29T05:15:40.029Z,15.1
2022-10-29T05:16:39.926Z,15.2
2022-10-29T05:17:40.212Z,15.2
2022-10-29T05:18:40.088Z,15.2
2022-10-29T05:19:39.946Z,15.2
2022-10-29T05:20:39.911Z,15.2
2022-10-29T05:21:39.961Z,15.2
2022-10-29T05:22:39.976Z,15.2
2022-10-29T05:23:39.968Z,15.1
2022-10-29T05:24:39.976Z,15.1
2022-10-29T05:25:39.989Z,15.1
2022-10-29T05:26:40.026Z,15.1
2022-10-29T05:27:40.130Z,15.1
2022-10-29T05:28:40.000Z,15.1
2022-10-29T05:29:40.016Z,15.1
2022-10-29T05:30:40.027Z,15.2
2022-10-29T05:31:44.249Z,15.2
2022-10-29T05:32:39.973Z,15.2
2022-10-29T05:33:39.999Z,15.2
2022-10-29T05:34:43.609Z,15.2
2022-10-29T05:35:39.904Z,15.2
2022-10-29T05:36:40.169Z,15.1
2022-10-29T05:37:40.132Z,15.2
2022-10-29T05:38:40.037Z,15.1
2022-10-29T05:39:40.098Z,15.2
2022-10-29T05:40:40.205Z,15.2
2022-10-29T05:41:40.250Z,15.3
2022-10-29T05:42:43.636Z,15.2
2022-10-29T05:43:40.039Z,15.2
2022-10-29T05:44:39.935Z,15.3
2022-10-29T05:45:39.969Z,15.3
2022-10-29T05:46:40.050Z,15.3
2022-10-29T05:47:39.932Z,15.3
2022-10-29T05:48:40.190Z,15.2
2022-10-29T05:49:39.983Z,15.2
2022-10-29T05:50:40.008Z,15.3
2022-10-29T05:51:39.981Z,15.3
2022-10-29T05:52:40.014Z,15.3
2022-10-29T05:53:39.986Z,15.2
2022-10-29T05:54:40.013Z,15.2
2022-10-29T05:55:40.016Z,15.2
2022-10-29T05:56:40.008Z,15.2
2022-10-29T05:57:40.111Z,15.2
2022-10-29T05:58:39.915Z,15.2
2022-10-29T05:59:39.917Z,15.2
2022-10-29T06:00:40.030Z,15.3
2022-10-29T06:01:40.218Z,15.3
2022-10-29T06:02:40.014Z,15.3
2022-10-29T06:03:40.093Z,15.3
2022-10-29T06:04:39.959Z,15.3
2022-10-29T06:05:39.977Z,15.3
2022-10-29T06:06:40.043Z,15.3
2022-10-29T06:07:39.993Z,15.3
2022-10-29T06:08:39.978Z,15.4
2022-10-29T06:09:40.108Z,15.4
2022-10-29T06:10:40.021Z,15.5
2022-10-29T06:11:39.964Z,15.4
2022-10-29T06:12:39.951Z,15.4
2022-10-29T06:13:40.046Z,15.4
2022-10-29T06:14:39.911Z,15.4
2022-10-29T06:15:39.935Z,15.4
2022-10-29T06:16:40.038Z,15.4
2022-10-29T06:17:40.069Z,15.5
2022-10-29T06:18:39.954Z,15.4
2022-10-29T06:20:39.961Z,15.4
2022-10-29T06:21:39.967Z,15.4
2022-10-29T06:22:40.088Z,15.4
2022-10-29T06:23:39.998Z,15.5
2022-10-29T06:24:39.995Z,15.5
2022-10-29T06:25:39.959Z,15.5
2022-10-29T06:26:39.933Z,15.5
2022-10-29T06:27:40.046Z,15.5
2022-10-29T06:28:39.933Z,15.5
2022-10-29T06:29:39.934Z,15.5
2022-10-29T06:30:40.027Z,15.4
2022-10-29T06:31:39.935Z,15.4
2022-10-29T06:32:40.036Z,15.4
2022-10-29T06:33:39.936Z,15.4
2022-10-29T06:34:39.939Z,15.4
2022-10-29T06:35:40.009Z,15.4
2022-10-29T06:36:39.952Z,15.4
2022-10-29T06:37:39.974Z,15.4
2022-10-29T06:38:39.909Z,15.4
2022-10-29T06:39:39.974Z,15.4
2022-10-29T06:40:39.977Z,15.3
2022-10-29T06:41:39.914Z,15.2
2022-10-29T06:42:39.934Z,15.2
2022-10-29T06:43:39.940Z,15.3
2022-10-29T06:44:39.904Z,15.3
2022-10-29T06:45:39.929Z,15.3
2022-10-29T06:46:39.912Z,15.4
2022-10-29T06:47:39.965Z,15.4
2022-10-29T06:48:39.968Z,15.5
2022-10-29T06:49:39.932Z,15.4
2022-10-29T06:50:39.938Z,15.5
2022-10-29T06:51:39.928Z,15.5
2022-10-29T06:52:39.923Z,15.6
2022-10-29T06:53:39.984Z,15.6
2022-10-29T06:54:39.950Z,15.6
2022-10-29T06:55:39.968Z,15.7
2022-10-29T06:56:39.950Z,15.7
2022-10-29T06:57:39.922Z,15.7
2022-10-29T06:58:39.922Z,15.7
2022-10-29T06:59:39.943Z,15.7
2022-10-29T07:00:40.125Z,15.8
2022-10-29T07:01:40.008Z,15.8
2022-10-29T07:02:39.920Z,15.7
2022-10-29T07:03:40.034Z,15.7
2022-10-29T07:04:39.987Z,15.8
2022-10-29T07:05:39.934Z,15.9
2022-10-29T07:06:39.930Z,15.9
2022-10-29T07:07:40.323Z,15.9
2022-10-29T07:08:39.929Z,15.9
2022-10-29T07:09:39.938Z,15.9
2022-10-29T07:10:39.978Z,15.9
2022-10-29T07:11:39.986Z,16
2022-10-29T07:12:39.924Z,16
2022-10-29T07:13:39.983Z,16
2022-10-29T07:14:40.014Z,16.1
2022-10-29T07:15:40.122Z,16.1
2022-10-29T07:16:40.012Z,16.1
2022-10-29T07:17:40.011Z,16.2
2022-10-29T07:18:40.020Z,16.2
2022-10-29T07:19:40.030Z,16.2
2022-10-29T07:20:39.934Z,16.2
2022-10-29T07:21:39.936Z,16.2
2022-10-29T07:22:39.949Z,16.2
2022-10-29T07:23:39.970Z,16.2
2022-10-29T07:24:39.957Z,16.2
2022-10-29T07:25:39.979Z,16.2
2022-10-29T07:26:39.971Z,16.3
2022-10-29T07:27:40.193Z,16.2
2022-10-29T07:28:39.991Z,16.3
2022-10-29T07:29:40.041Z,16.3
2022-10-29T07:30:40.027Z,16.3
2022-10-29T07:31:39.996Z,16.3
2022-10-29T07:32:39.928Z,16.3
2022-10-29T07:33:39.921Z,16.3
2022-10-29T07:34:40.024Z,16.3
2022-10-29T07:35:39.960Z,16.2
2022-10-29T07:36:39.930Z,16.2
2022-10-29T07:37:39.933Z,16.2
2022-10-29T07:38:39.936Z,16.3
2022-10-29T07:39:39.958Z,16.3
2022-10-29T07:40:40.075Z,16.3
2022-10-29T07:41:40.052Z,16.3
2022-10-29T07:42:40.070Z,16.3
2022-10-29T07:43:39.967Z,16.3
2022-10-29T07:44:39.933Z,16.3
2022-10-29T07:45:39.987Z,16.3
2022-10-29T07:46:40.022Z,16.3
2022-10-29T07:47:39.998Z,16.4
2022-10-29T07:48:40.032Z,16.4
2022-10-29T07:49:39.941Z,16.5
2022-10-29T07:50:40.031Z,16.4
2022-10-29T07:51:40.053Z,16.5
2022-10-29T07:52:40.039Z,16.5
2022-10-29T07:53:39.950Z,16.5
2022-10-29T07:54:39.961Z,16.6
2022-10-29T07:55:39.962Z,16.6
2022-10-29T07:56:42.404Z,16.5
2022-10-29T07:57:39.983Z,16.6
2022-10-29T07:58:40.065Z,16.5
2022-10-29T07:59:39.938Z,16.5
2022-10-29T08:00:40.199Z,16.6
2022-10-29T08:01:40.182Z,16.6
2022-10-29T08:02:39.944Z,16.7
2022-10-29T08:03:39.927Z,16.7
2022-10-29T08:04:40.021Z,16.7
2022-10-29T08:05:42.558Z,16.8
2022-10-29T08:06:40.039Z,16.8
2022-10-29T08:07:39.944Z,16.8
2022-10-29T08:08:40.040Z,16.9
2022-10-29T08:09:39.929Z,16.8
2022-10-29T08:10:39.933Z,16.8
2022-10-29T08:11:40.011Z,16.9
2022-10-29T08:12:39.960Z,16.9
2022-10-29T08:13:40.076Z,17
2022-10-29T08:14:39.977Z,17
2022-10-29T08:15:39.932Z,17
2022-10-29T08:16:40.007Z,17.1
2022-10-29T08:17:39.931Z,17.2
2022-10-29T08:18:40.006Z,17.2
2022-10-29T08:19:40.025Z,17.2
2022-10-29T08:20:39.939Z,17.2
2022-10-29T08:21:40.154Z,17.2
2022-10-29T08:22:40.033Z,17.2
2022-10-29T08:23:40.049Z,17.3
2022-10-29T08:24:39.968Z,17.3
2022-10-29T08:25:39.940Z,17.3
2022-10-29T08:26:39.929Z,17.3
2022-10-29T08:27:40.065Z,17.2
2022-10-29T08:28:39.959Z,17.2
2022-10-29T08:29:39.980Z,17.2
2022-10-29T08:30:39.950Z,17.2
2022-10-29T08:31:40.065Z,17.3
2022-10-29T08:32:40.004Z,17.3
2022-10-29T08:33:40.117Z,17.2
2022-10-29T08:34:39.985Z,17.3
2022-10-29T08:35:39.951Z,17.3
2022-10-29T08:36:39.952Z,17.3
2022-10-29T08:37:39.970Z,17.3
2022-10-29T08:38:40.032Z,17.2
2022-10-29T08:39:39.927Z,17.4
2022-10-29T08:40:40.054Z,17.5
2022-10-29T08:41:40.032Z,17.5
2022-10-29T08:42:39.938Z,17.5
2022-10-29T08:43:44.539Z,17.5
2022-10-29T08:44:40.010Z,17.5
2022-10-29T08:45:39.964Z,17.5
2022-10-29T08:46:39.961Z,17.5
2022-10-29T08:47:40.077Z,17.5
2022-10-29T08:48:39.929Z,17.6
2022-10-29T08:49:39.992Z,17.7
2022-10-29T08:50:39.938Z,17.7
2022-10-29T08:51:40.009Z,17.8
2022-10-29T08:52:48.311Z,17.8
2022-10-29T08:53:40.015Z,17.9
2022-10-29T08:54:39.952Z,18
2022-10-29T08:55:40.029Z,18
2022-10-29T08:56:40.028Z,18
2022-10-29T08:57:39.932Z,18.2
2022-10-29T08:58:39.977Z,18.3
2022-10-29T08:59:39.972Z,18.3
2022-10-29T09:00:40.113Z,18.4
2022-10-29T09:01:40.208Z,18.5
2022-10-29T09:02:39.979Z,18.6
2022-10-29T09:03:40.003Z,18.7
2022-10-29T09:04:40.092Z,18.7
2022-10-29T09:05:40.001Z,18.6
2022-10-29T09:06:40.028Z,18.5
2022-10-29T09:07:40.006Z,18.5
2022-10-29T09:08:40.024Z,18.6
2022-10-29T09:09:39.941Z,18.7
2022-10-29T09:10:39.937Z,18.7
2022-10-29T09:11:40.139Z,18.8
2022-10-29T09:12:40.032Z,18.9
2022-10-29T09:13:39.938Z,19
2022-10-29T09:14:39.939Z,19
2022-10-29T09:15:40.054Z,19.1
2022-10-29T09:17:39.963Z,19.1
2022-10-29T09:18:39.937Z,19.2
2022-10-29T09:19:39.975Z,19.2
2022-10-29T09:20:39.933Z,19
2022-10-29T09:21:39.989Z,19.2
2022-10-29T09:22:39.949Z,19.2
2022-10-29T09:23:40.006Z,19.2
2022-10-29T09:24:40.006Z,19.3
2022-10-29T09:25:39.937Z,19.3
2022-10-29T09:26:40.017Z,19.2
2022-10-29T09:27:40.043Z,19.3
2022-10-29T09:28:40.039Z,19.2
2022-10-29T09:29:40.046Z,19.1
2022-10-29T09:30:40.048Z,19
2022-10-29T09:31:40.063Z,19
2022-10-29T09:32:40.194Z,19
2022-10-29T09:33:39.936Z,19
2022-10-29T09:34:39.990Z,19.1
2022-10-29T09:35:39.974Z,19.1
2022-10-29T09:36:39.953Z,19.2
2022-10-29T09:37:40.009Z,19.3
2022-10-29T09:38:40.001Z,19.4
2022-10-29T09:39:40.129Z,19.4
2022-10-29T09:40:39.996Z,19.4
2022-10-29T09:41:39.959Z,19.4
2022-10-29T09:42:39.946Z,19.5
2022-10-29T09:43:39.949Z,19.5
2022-10-29T09:44:39.944Z,19.5
2022-10-29T09:45:39.951Z,19.4
2022-10-29T09:46:39.950Z,19.5
2022-10-29T09:47:39.999Z,19.5
2022-10-29T09:48:39.959Z,19.4
2022-10-29T09:49:39.959Z,19.5
2022-10-29T09:50:39.955Z,19.6
2022-10-29T09:51:39.952Z,19.6
2022-10-29T09:52:39.955Z,19.7
2022-10-29T09:53:39.951Z,19.7
2022-10-29T09:54:40.071Z,19.7
2022-10-29T09:55:40.018Z,19.8
2022-10-29T09:56:39.948Z,19.8
2022-10-29T09:57:39.943Z,19.9
2022-10-29T09:58:39.965Z,19.9
2022-10-29T09:59:39.946Z,20
2022-10-29T10:00:39.953Z,20.1
2022-10-29T10:01:40.041Z,20.2
2022-10-29T10:02:40.073Z,20.2
2022-10-29T10:03:39.998Z,20.2
2022-10-29T10:04:39.958Z,20.2
2022-10-29T10:05:39.996Z,20.2
2022-10-29T10:06:41.421Z,20.2
2022-10-29T10:07:39.963Z,20.1
2022-10-29T10:08:40.033Z,20.2
2022-10-29T10:09:39.963Z,20.3
2022-10-29T10:10:40.010Z,20.1
2022-10-29T10:11:40.062Z,20.3
2022-10-29T10:12:40.012Z,20.2
2022-10-29T10:13:40.032Z,20.3
2022-10-29T10:14:40.026Z,20.3
2022-10-29T10:15:40.042Z,20.3
2022-10-29T10:16:40.054Z,20.3
2022-10-29T10:17:39.957Z,20.1
2022-10-29T10:18:40.250Z,20
2022-10-29T10:19:40.058Z,20
2022-10-29T10:20:39.956Z,20
2022-10-29T10:21:40.063Z,20
2022-10-29T10:22:39.984Z,20.1
2022-10-29T10:23:39.987Z,20.1
2022-10-29T10:24:39.991Z,19.9
2022-10-29T10:25:40.192Z,19.9
2022-10-29T10:26:40.150Z,19.9
2022-10-29T10:27:40.016Z,20
2022-10-29T10:28:39.971Z,19.8
2022-10-29T10:29:39.973Z,19.8
2022-10-29T10:30:39.957Z,19.8
2022-10-29T10:31:39.968Z,19.8
2022-10-29T10:32:40.044Z,19.8
2022-10-29T10:33:40.058Z,19.8
2022-10-29T10:34:40.077Z,19.9
2022-10-29T10:35:40.061Z,19.8
2022-10-29T10:36:40.098Z,19.8
2022-10-29T10:37:40.074Z,20
2022-10-29T10:38:40.044Z,19.9
2022-10-29T10:39:39.979Z,19.7
2022-10-29T10:40:40.021Z,19.8
2022-10-29T10:41:39.999Z,19.7
2022-10-29T10:42:40.111Z,19.7
2022-10-29T10:43:39.974Z,19.6
2022-10-29T10:44:40.038Z,19.7
2022-10-29T10:45:40.042Z,19.6
2022-10-29T10:46:40.038Z,19.8
2022-10-29T10:47:40.042Z,19.4
2022-10-29T10:48:40.037Z,19.5
2022-10-29T10:49:40.062Z,19.7
2022-10-29T10:50:40.053Z,19.5
2022-10-29T10:51:40.079Z,19.4
2022-10-29T10:52:39.967Z,19.4
2022-10-29T10:53:39.975Z,19.4
2022-10-29T10:54:40.054Z,19.5
2022-10-29T10:55:39.952Z,19.3
2022-10-29T10:56:40.002Z,19.3
2022-10-29T10:57:40.038Z,19.2
2022-10-29T10:58:39.979Z,19.2
2022-10-29T10:59:40.032Z,19.3
2022-10-29T11:00:40.094Z,19.4
2022-10-29T11:01:40.161Z,19.2
2022-10-29T11:02:40.038Z,19.3
2022-10-29T11:03:40.041Z,19.3
2022-10-29T11:04:40.045Z,19.3
2022-10-29T11:05:40.061Z,19.3
2022-10-29T11:06:40.089Z,19.3
2022-10-29T11:07:40.092Z,19.3
2022-10-29T11:08:40.076Z,19.3
2022-10-29T11:09:40.112Z,19.3
2022-10-29T11:10:40.209Z,19.4
2022-10-29T11:11:40.232Z,19.4
2022-10-29T11:12:40.264Z,19.6
2022-10-29T11:13:40.094Z,19.4
2022-10-29T11:14:40.201Z,19.5
2022-10-29T11:15:40.273Z,19.5
2022-10-29T11:16:40.073Z,19.5
2022-10-29T11:17:40.289Z,19.4
2022-10-29T11:18:40.319Z,19.3
2022-10-29T11:19:40.265Z,19.3
2022-10-29T11:20:40.283Z,19.5
2022-10-29T11:21:40.168Z,19.4
2022-10-29T11:22:39.966Z,19.4
2022-10-29T11:23:39.978Z,19.5
2022-10-29T11:24:39.983Z,19.3
2022-10-29T11:25:39.945Z,19.3
2022-10-29T11:26:39.962Z,19.1
2022-10-29T11:27:39.953Z,19.3
2022-10-29T11:28:40.016Z,19.5
2022-10-29T11:29:39.976Z,19.5
2022-10-29T11:30:39.978Z,19.6
2022-10-29T11:31:39.973Z,19.6
2022-10-29T11:32:39.981Z,19.4
2022-10-29T11:33:39.981Z,19.6
2022-10-29T11:34:39.976Z,19.7
2022-10-29T11:35:40.048Z,19.7
2022-10-29T11:36:40.020Z,19.6
2022-10-29T11:37:39.974Z,19.7
2022-10-29T11:38:40.048Z,19.6
2022-10-29T11:39:39.994Z,19.3
2022-10-29T11:40:39.969Z,19.5
2022-10-29T11:41:39.984Z,19.6
2022-10-29T11:42:39.979Z,19.1
2022-10-29T11:43:40.027Z,19.1
2022-10-29T11:44:40.056Z,19
2022-10-29T11:45:39.969Z,19.1
2022-10-29T11:46:40.036Z,19.1
2022-10-29T11:47:39.965Z,19.2
2022-10-29T11:48:39.990Z,19.2
2022-10-29T11:49:39.976Z,19.3
2022-10-29T11:50:39.974Z,19.4
2022-10-29T11:51:40.026Z,19.3
2022-10-29T11:52:39.983Z,18.6
2022-10-29T11:53:39.966Z,18.9
2022-10-29T11:54:39.979Z,18.9
2022-10-29T11:55:39.988Z,18.9
2022-10-29T11:56:39.973Z,18.9
2022-10-29T11:57:39.983Z,18.8
2022-10-29T11:58:40.844Z,18.8
2022-10-29T11:59:40.037Z,18.9
2022-10-29T12:00:39.970Z,18.8
2022-10-29T12:01:39.988Z,18.5
2022-10-29T12:02:40.021Z,18.6
2022-10-29T12:03:40.054Z,18.6
2022-10-29T12:04:39.987Z,18.5
2022-10-29T12:05:39.979Z,18.5
2022-10-29T12:06:40.032Z,18.4
2022-10-29T12:07:40.010Z,18.4
2022-10-29T12:08:39.984Z,18.4
2022-10-29T12:09:40.008Z,18.1
2022-10-29T12:10:39.994Z,18.5
2022-10-29T12:11:42.954Z,18.3
2022-10-29T12:12:39.981Z,18.4
2022-10-29T12:13:40.000Z,18.5
2022-10-29T12:14:40.034Z,18.6
2022-10-29T12:15:39.992Z,18.6
2022-10-29T12:16:40.003Z,18.1
2022-10-29T12:17:40.091Z,18.1
2022-10-29T12:18:39.977Z,18
2022-10-29T12:19:39.993Z,18.3
2022-10-29T12:20:39.993Z,18.5
2022-10-29T12:21:40.044Z,18.6
2022-10-29T12:22:40.031Z,18.6
2022-10-29T12:23:40.003Z,18.4
2022-10-29T12:24:39.999Z,18.3
2022-10-29T12:25:39.999Z,18.1
2022-10-29T12:26:39.984Z,18.1
2022-10-29T12:27:39.989Z,18.3
2022-10-29T12:28:39.988Z,18.3
2022-10-29T12:29:40.031Z,18.3
2022-10-29T12:30:40.024Z,18.2
2022-10-29T12:31:39.984Z,18.3
2022-10-29T12:32:39.985Z,18.2
2022-10-29T12:33:39.985Z,18.5
2022-10-29T12:34:39.992Z,18.2
2022-10-29T12:35:40.080Z,18.2
2022-10-29T12:36:39.983Z,18.2
2022-10-29T12:37:40.045Z,18
2022-10-29T12:38:40.032Z,18.2
2022-10-29T12:39:39.986Z,18.2
2022-10-29T12:40:40.024Z,18.2
2022-10-29T12:41:40.008Z,18.2
2022-10-29T12:42:39.989Z,18.3
2022-10-29T12:43:40.007Z,18.2
2022-10-29T12:44:44.852Z,18.4
2022-10-29T12:46:06.353Z,18.3
2022-10-29T12:46:40.092Z,18.6
2022-10-29T12:47:40.099Z,18.5
2022-10-29T12:48:40.093Z,18.5
2022-10-29T12:49:40.000Z,18.7
2022-10-29T12:50:39.979Z,18.7
2022-10-29T12:51:40.114Z,18.7
2022-10-29T12:52:40.031Z,18.7
2022-10-29T12:53:40.045Z,18.7
2022-10-29T12:54:40.001Z,18.7
2022-10-29T12:55:40.004Z,18.8
2022-10-29T12:56:39.994Z,18.9
2022-10-29T12:57:40.060Z,19
2022-10-29T12:58:40.083Z,18.9
2022-10-29T12:59:40.157Z,18.8
2022-10-29T13:00:40.175Z,18.7
2022-10-29T13:02:05.768Z,18.7
2022-10-29T13:02:40.106Z,18.6
2022-10-29T13:03:42.427Z,18.7
2022-10-29T13:04:40.101Z,18.7
2022-10-29T13:05:40.104Z,18.6
2022-10-29T13:06:40.011Z,18.5
2022-10-29T13:07:40.009Z,18.4
2022-10-29T13:08:40.029Z,18.5
2022-10-29T13:09:43.063Z,18.5
2022-10-29T13:10:40.039Z,18.6
2022-10-29T13:11:40.074Z,18.6
2022-10-29T13:12:40.037Z,18.6
2022-10-29T13:13:40.058Z,18.6
2022-10-29T13:14:40.061Z,18.6
2022-10-29T13:15:40.069Z,18.6
2022-10-29T13:16:40.061Z,18.7
2022-10-29T13:17:40.178Z,18.7
2022-10-29T13:18:41.709Z,18.6
2022-10-29T13:19:39.994Z,18.6
2022-10-29T13:20:40.051Z,18.7
2022-10-29T13:21:40.007Z,18.5
2022-10-29T13:22:40.248Z,18.7
2022-10-29T13:23:40.021Z,18.8
2022-10-29T13:24:40.126Z,18.6
2022-10-29T13:25:40.007Z,18.6
2022-10-29T13:26:40.035Z,18.7
2022-10-29T13:27:40.046Z,18.8
2022-10-29T13:28:40.014Z,18.8
2022-10-29T13:29:40.059Z,18.5
2022-10-29T13:30:40.067Z,18.7
2022-10-29T13:31:40.438Z,18.8
2022-10-29T13:32:40.062Z,18.6
2022-10-29T13:33:40.004Z,18.6
2022-10-29T13:34:40.186Z,18.6
2022-10-29T13:35:40.110Z,18.8